Pacific Breeze — JD3088 — position and weather

sailwx.info

Track history (hours):
 
Tides and Currents Weather Stations Pressure Air Temp Water Temp Dewpoint Dewpoint Depression Visibility Wind Speed Wind Dir Waves Ship Positions

Pacific Breeze

Last reported at 2017-Oct-08 01:01 UTC. Time now 2017-Nov-21 21:02 UTC.
Position N 34°52' E 139°35'.
Warning: this ship's position is 44 days out of date.

Length 115 m; draft 5.1 m.

Type: Cargo ship. MMSI: 431000560.

Date/timePositionNaut miles runAvg speedWind from/ knotsBaromVisibWave heightAir tempDewpointWater temp
2017-Oct-08 01:01N 34°52' E 139°35'011.9
2017-Oct-08 00:59N 34°52' E 139°35'612.6
2017-Oct-08 00:31N 34°58' E 139°36'611.6
2017-Oct-08 00:00N 35°03' E 139°40'611.0
2017-Oct-07 23:30N 35°07' E 139°44'713.2
2017-Oct-07 23:00N 35°14' E 139°46'612.6
2017-Oct-07 22:31N 35°19' E 139°43'613.0
2017-Oct-07 22:00N 35°26' E 139°45'713.9
2017-Oct-07 21:30N 35°31' E 139°51'612.5
2017-Oct-07 21:00N 35°37' E 139°50'0 0.0
2017-Oct-07 06:34N 35°37' E 139°50'0 0.0
2017-Oct-07 06:04N 35°37' E 139°50'0 0.0
2017-Oct-07 05:52N 35°37' E 139°50'0 0.0
2017-Oct-07 05:04N 35°37' E 139°50'0 0.0
2017-Oct-07 04:52N 35°37' E 139°50'0 0.0
2017-Oct-07 04:16N 35°37' E 139°50'0 0.0
2017-Oct-07 03:58N 35°37' E 139°50'0 0.0
2017-Oct-06 22:04N 35°37' E 139°49'0 3.5
2017-Oct-06 22:00N 35°37' E 139°49'3 5.0
2017-Oct-06 21:21N 35°35' E 139°52'0 0.2
2017-Oct-06 20:54N 35°35' E 139°52'0 0.1
2017-Oct-06 20:21N 35°35' E 139°52'0 0.0
2017-Oct-06 20:00N 35°35' E 139°52'0 0.1
2017-Oct-06 17:54N 35°35' E 139°53'2 4.4
2017-Oct-06 17:29N 35°33' E 139°52'611.9
2017-Oct-06 17:00N 35°28' E 139°50'612.4
2017-Oct-06 16:30N 35°26' E 139°43'1 2.4
2017-Oct-06 15:55N 35°26' E 139°41'0 0.0
2017-Oct-06 15:25N 35°26' E 139°41'0 0.0
2017-Oct-06 14:58N 35°26' E 139°41'0 0.0
2017-Oct-06 14:28N 35°26' E 139°41'0 0.0
2017-Oct-06 13:58N 35°26' E 139°41'0 0.0
2017-Oct-06 13:28N 35°26' E 139°41'0 0.0
2017-Oct-06 12:58N 35°26' E 139°41'0 0.0
2017-Oct-06 12:25N 35°26' E 139°41'0 0.0
2017-Oct-06 11:58N 35°26' E 139°41'0 0.0
2017-Oct-06 11:28N 35°26' E 139°41'0 0.0
2017-Oct-06 10:58N 35°26' E 139°41'0 0.0
2017-Oct-06 10:22N 35°26' E 139°41'0 0.0
2017-Oct-06 09:58N 35°26' E 139°41'0 0.0
2017-Oct-06 09:28N 35°26' E 139°41'0 0.5
2017-Oct-06 09:00N 35°25' E 139°41'1 1.0
2017-Oct-06 08:28N 35°26' E 139°42'0 0.0
2017-Oct-06 07:58N 35°26' E 139°42'0 0.0
2017-Oct-06 07:28N 35°26' E 139°42'0 0.0
2017-Oct-06 06:58N 35°26' E 139°42'0 0.0
2017-Oct-06 06:28N 35°26' E 139°42'0 0.0
2017-Oct-06 05:58N 35°26' E 139°42'0 0.2
2017-Oct-06 05:28N 35°26' E 139°42'0 0.1
2017-Oct-06 04:58N 35°26' E 139°42'0 0.1
2017-Oct-06 04:28N 35°26' E 139°42'0 0.1
2017-Oct-06 03:58N 35°26' E 139°42'0 0.0
2017-Oct-06 03:25N 35°26' E 139°42'0 0.1
2017-Oct-06 02:58N 35°26' E 139°42'0 0.1
2017-Oct-06 02:28N 35°26' E 139°42'0 1.1
2017-Oct-06 02:00N 35°25' E 139°42'5 9.5
2017-Oct-06 01:30N 35°23' E 139°47'3 6.8
2017-Oct-06 01:00N 35°22' E 139°51'0 0.0
2017-Oct-06 00:28N 35°22' E 139°51'0 0.0
2017-Oct-06 00:01N 35°22' E 139°51'0 0.0
2017-Oct-05 23:28N 35°22' E 139°51'0 0.0
2017-Oct-05 22:58N 35°22' E 139°51'0 0.0
2017-Oct-05 22:28N 35°22' E 139°51'0 0.0
2017-Oct-05 22:01N 35°22' E 139°51'0 0.0
2017-Oct-05 21:28N 35°22' E 139°51'0 0.0
2017-Oct-05 20:58N 35°22' E 139°51'0 0.0
2017-Oct-05 20:28N 35°22' E 139°51'0 0.0
2017-Oct-05 19:58N 35°22' E 139°51'0 0.0
2017-Oct-05 19:28N 35°22' E 139°51'0 0.0
2017-Oct-05 18:58N 35°22' E 139°51'0 0.0
2017-Oct-05 18:31N 35°22' E 139°51'0 0.0
2017-Oct-05 17:55N 35°22' E 139°51'0 0.0
2017-Oct-05 17:28N 35°22' E 139°51'0 0.0
2017-Oct-05 17:01N 35°22' E 139°51'0 0.0
2017-Oct-05 15:28N 35°22' E 139°51'0 0.0
2017-Oct-05 14:58N 35°22' E 139°51'0 0.0
2017-Oct-05 14:28N 35°22' E 139°51'0 0.0
2017-Oct-05 13:58N 35°22' E 139°51'0 0.0
2017-Oct-05 13:31N 35°22' E 139°51'0 0.0
2017-Oct-05 12:58N 35°22' E 139°51'0 0.0
2017-Oct-05 12:28N 35°22' E 139°51'0 0.0
2017-Oct-05 11:58N 35°22' E 139°51'0 0.0
2017-Oct-05 11:28N 35°22' E 139°51'0 0.0
2017-Oct-05 11:00N 35°22' E 139°51'1 1.8
2017-Oct-05 10:30N 35°22' E 139°50'611.2
2017-Oct-05 10:01N 35°28' E 139°50'714.2
2017-Oct-05 09:30N 35°32' E 139°57'2 0.1
2017-Oct-04 05:16N 35°33' E 139°58'412.6
2017-Oct-04 04:57N 35°31' E 139°54'612.5
2017-Oct-04 04:30N 35°27' E 139°49'612.4
2017-Oct-04 04:00N 35°22' E 139°45'611.7
2017-Oct-04 03:30N 35°16' E 139°46'612.2
2017-Oct-04 03:00N 35°10' E 139°47'611.5
2017-Oct-04 02:30N 35°05' E 139°44'612.0
2017-Oct-04 02:00N 35°01' E 139°38'612.1
2017-Oct-04 01:30N 34°57' E 139°32'  
2017-Sep-28 08:14N 34°49' E 139°20'912.1
2017-Sep-28 07:30N 34°54' E 139°29'612.1
2017-Sep-28 07:00N 34°59' E 139°33'612.3
2017-Sep-28 06:30N 35°03' E 139°39'713.3
2017-Sep-28 06:01N 35°09' E 139°44'713.1
2017-Sep-28 05:30N 35°15' E 139°46'713.5
2017-Sep-28 05:00N 35°21' E 139°42'4 6.4
2017-Sep-28 04:28N 35°23' E 139°39'0 0.0
2017-Sep-28 03:58N 35°23' E 139°39'0 0.0
2017-Sep-28 03:31N 35°23' E 139°39'0 0.0
2017-Sep-28 02:58N 35°23' E 139°39'0 0.0
2017-Sep-28 02:31N 35°23' E 139°39'0 0.0
2017-Sep-28 01:58N 35°23' E 139°39'0 0.0
2017-Sep-28 01:31N 35°23' E 139°39'  
Track history (hours):
 
Tides and Currents Weather Stations Pressure Air Temp Water Temp Dewpoint Dewpoint Depression Visibility Wind Speed Wind Dir Waves Ship Positions

Pacific Breeze

Last reported at 2017-Oct-08 01:01 UTC. Time now 2017-Nov-21 21:02 UTC.
Position N 34°52' E 139°35'.
Warning: this ship's position is 44 days out of date.

Length 115 m; draft 5.1 m.

Type: Cargo ship. MMSI: 431000560.

Date/timePositionNaut miles runAvg speedWind from/ knotsBaromVisibWave heightAir tempDewpointWater temp
2017-Oct-08 01:01N 34°52' E 139°35'011.9
2017-Oct-08 00:59N 34°52' E 139°35'612.6
2017-Oct-08 00:31N 34°58' E 139°36'611.6
2017-Oct-08 00:00N 35°03' E 139°40'611.0
2017-Oct-07 23:30N 35°07' E 139°44'713.2
2017-Oct-07 23:00N 35°14' E 139°46'612.6
2017-Oct-07 22:31N 35°19' E 139°43'613.0
2017-Oct-07 22:00N 35°26' E 139°45'713.9
2017-Oct-07 21:30N 35°31' E 139°51'612.5
2017-Oct-07 21:00N 35°37' E 139°50'0 0.0
2017-Oct-07 06:34N 35°37' E 139°50'0 0.0
2017-Oct-07 06:04N 35°37' E 139°50'0 0.0
2017-Oct-07 05:52N 35°37' E 139°50'0 0.0
2017-Oct-07 05:04N 35°37' E 139°50'0 0.0
2017-Oct-07 04:52N 35°37' E 139°50'0 0.0
2017-Oct-07 04:16N 35°37' E 139°50'0 0.0
2017-Oct-07 03:58N 35°37' E 139°50'0 0.0
2017-Oct-06 22:04N 35°37' E 139°49'0 3.5
2017-Oct-06 22:00N 35°37' E 139°49'3 5.0
2017-Oct-06 21:21N 35°35' E 139°52'0 0.2
2017-Oct-06 20:54N 35°35' E 139°52'0 0.1
2017-Oct-06 20:21N 35°35' E 139°52'0 0.0
2017-Oct-06 20:00N 35°35' E 139°52'0 0.1
2017-Oct-06 17:54N 35°35' E 139°53'2 4.4
2017-Oct-06 17:29N 35°33' E 139°52'611.9
2017-Oct-06 17:00N 35°28' E 139°50'612.4
2017-Oct-06 16:30N 35°26' E 139°43'1 2.4
2017-Oct-06 15:55N 35°26' E 139°41'0 0.0
2017-Oct-06 15:25N 35°26' E 139°41'0 0.0
2017-Oct-06 14:58N 35°26' E 139°41'0 0.0
2017-Oct-06 14:28N 35°26' E 139°41'0 0.0
2017-Oct-06 13:58N 35°26' E 139°41'0 0.0
2017-Oct-06 13:28N 35°26' E 139°41'0 0.0
2017-Oct-06 12:58N 35°26' E 139°41'0 0.0
2017-Oct-06 12:25N 35°26' E 139°41'0 0.0
2017-Oct-06 11:58N 35°26' E 139°41'0 0.0
2017-Oct-06 11:28N 35°26' E 139°41'0 0.0
2017-Oct-06 10:58N 35°26' E 139°41'0 0.0
2017-Oct-06 10:22N 35°26' E 139°41'0 0.0
2017-Oct-06 09:58N 35°26' E 139°41'0 0.0
2017-Oct-06 09:28N 35°26' E 139°41'0 0.5
2017-Oct-06 09:00N 35°25' E 139°41'1 1.0
2017-Oct-06 08:28N 35°26' E 139°42'0 0.0
2017-Oct-06 07:58N 35°26' E 139°42'0 0.0
2017-Oct-06 07:28N 35°26' E 139°42'0 0.0
2017-Oct-06 06:58N 35°26' E 139°42'0 0.0
2017-Oct-06 06:28N 35°26' E 139°42'0 0.0
2017-Oct-06 05:58N 35°26' E 139°42'0 0.2
2017-Oct-06 05:28N 35°26' E 139°42'0 0.1
2017-Oct-06 04:58N 35°26' E 139°42'0 0.1
2017-Oct-06 04:28N 35°26' E 139°42'0 0.1
2017-Oct-06 03:58N 35°26' E 139°42'0 0.0
2017-Oct-06 03:25N 35°26' E 139°42'0 0.1
2017-Oct-06 02:58N 35°26' E 139°42'0 0.1
2017-Oct-06 02:28N 35°26' E 139°42'0 1.1
2017-Oct-06 02:00N 35°25' E 139°42'5 9.5
2017-Oct-06 01:30N 35°23' E 139°47'3 6.8
2017-Oct-06 01:00N 35°22' E 139°51'0 0.0
2017-Oct-06 00:28N 35°22' E 139°51'0 0.0
2017-Oct-06 00:01N 35°22' E 139°51'0 0.0
2017-Oct-05 23:28N 35°22' E 139°51'0 0.0
2017-Oct-05 22:58N 35°22' E 139°51'0 0.0
2017-Oct-05 22:28N 35°22' E 139°51'0 0.0
2017-Oct-05 22:01N 35°22' E 139°51'0 0.0
2017-Oct-05 21:28N 35°22' E 139°51'0 0.0
2017-Oct-05 20:58N 35°22' E 139°51'0 0.0
2017-Oct-05 20:28N 35°22' E 139°51'0 0.0
2017-Oct-05 19:58N 35°22' E 139°51'0 0.0
2017-Oct-05 19:28N 35°22' E 139°51'0 0.0
2017-Oct-05 18:58N 35°22' E 139°51'0 0.0
2017-Oct-05 18:31N 35°22' E 139°51'0 0.0
2017-Oct-05 17:55N 35°22' E 139°51'0 0.0
2017-Oct-05 17:28N 35°22' E 139°51'0 0.0
2017-Oct-05 17:01N 35°22' E 139°51'0 0.0
2017-Oct-05 15:28N 35°22' E 139°51'0 0.0
2017-Oct-05 14:58N 35°22' E 139°51'0 0.0
2017-Oct-05 14:28N 35°22' E 139°51'0 0.0
2017-Oct-05 13:58N 35°22' E 139°51'0 0.0
2017-Oct-05 13:31N 35°22' E 139°51'0 0.0
2017-Oct-05 12:58N 35°22' E 139°51'0 0.0
2017-Oct-05 12:28N 35°22' E 139°51'0 0.0
2017-Oct-05 11:58N 35°22' E 139°51'0 0.0
2017-Oct-05 11:28N 35°22' E 139°51'0 0.0
2017-Oct-05 11:00N 35°22' E 139°51'1 1.8
2017-Oct-05 10:30N 35°22' E 139°50'611.2
2017-Oct-05 10:01N 35°28' E 139°50'714.2
2017-Oct-05 09:30N 35°32' E 139°57'2 0.1
2017-Oct-04 05:16N 35°33' E 139°58'412.6
2017-Oct-04 04:57N 35°31' E 139°54'612.5
2017-Oct-04 04:30N 35°27' E 139°49'612.4
2017-Oct-04 04:00N 35°22' E 139°45'611.7
2017-Oct-04 03:30N 35°16' E 139°46'612.2
2017-Oct-04 03:00N 35°10' E 139°47'611.5
2017-Oct-04 02:30N 35°05' E 139°44'612.0
2017-Oct-04 02:00N 35°01' E 139°38'612.1
2017-Oct-04 01:30N 34°57' E 139°32'  
2017-Sep-28 08:14N 34°49' E 139°20'912.1
2017-Sep-28 07:30N 34°54' E 139°29'612.1
2017-Sep-28 07:00N 34°59' E 139°33'612.3
2017-Sep-28 06:30N 35°03' E 139°39'713.3
2017-Sep-28 06:01N 35°09' E 139°44'713.1
2017-Sep-28 05:30N 35°15' E 139°46'713.5
2017-Sep-28 05:00N 35°21' E 139°42'4 6.4
2017-Sep-28 04:28N 35°23' E 139°39'0 0.0
2017-Sep-28 03:58N 35°23' E 139°39'0 0.0
2017-Sep-28 03:31N 35°23' E 139°39'0 0.0
2017-Sep-28 02:58N 35°23' E 139°39'0 0.0
2017-Sep-28 02:31N 35°23' E 139°39'0 0.0
2017-Sep-28 01:58N 35°23' E 139°39'0 0.0
2017-Sep-28 01:31N 35°23' E 139°39'  

Dump ship's entire track history